sensor_id;sensor_type;location;lat;lon;timestamp;P1;durP1;ratioP1;P2;durP2;ratioP2
21430;SDS011;10876;49.038;10.608;2023-09-08T00:00:41;3.85;;;2.55;;
21430;SDS011;10876;49.038;10.608;2023-09-08T00:03:10;4.00;;;2.58;;
21430;SDS011;10876;49.038;10.608;2023-09-08T00:05:37;5.72;;;2.67;;
21430;SDS011;10876;49.038;10.608;2023-09-08T00:08:06;6.18;;;2.88;;
21430;SDS011;10876;49.038;10.608;2023-09-08T00:10:34;6.72;;;3.17;;
21430;SDS011;10876;49.038;10.608;2023-09-08T00:13:01;7.07;;;2.55;;
21430;SDS011;10876;49.038;10.608;2023-09-08T00:15:33;6.72;;;3.85;;
21430;SDS011;10876;49.038;10.608;2023-09-08T00:18:08;4.35;;;2.65;;
21430;SDS011;10876;49.038;10.608;2023-09-08T00:20:38;5.95;;;3.03;;
21430;SDS011;10876;49.038;10.608;2023-09-08T00:23:09;4.68;;;2.78;;
21430;SDS011;10876;49.038;10.608;2023-09-08T00:25:36;4.20;;;2.58;;
21430;SDS011;10876;49.038;10.608;2023-09-08T00:30:56;5.35;;;3.22;;
21430;SDS011;10876;49.038;10.608;2023-09-08T00:33:29;4.50;;;2.58;;
21430;SDS011;10876;49.038;10.608;2023-09-08T00:36:00;11.20;;;2.95;;
21430;SDS011;10876;49.038;10.608;2023-09-08T00:41:24;5.28;;;3.30;;
21430;SDS011;10876;49.038;10.608;2023-09-08T00:43:51;6.57;;;3.53;;
21430;SDS011;10876;49.038;10.608;2023-09-08T00:46:21;4.65;;;2.75;;
21430;SDS011;10876;49.038;10.608;2023-09-08T00:49:02;4.75;;;2.80;;
21430;SDS011;10876;49.038;10.608;2023-09-08T00:51:31;5.85;;;2.80;;
21430;SDS011;10876;49.038;10.608;2023-09-08T00:54:05;5.40;;;3.15;;
21430;SDS011;10876;49.038;10.608;2023-09-08T00:56:32;4.60;;;2.80;;
21430;SDS011;10876;49.038;10.608;2023-09-08T00:58:59;5.55;;;2.95;;
21430;SDS011;10876;49.038;10.608;2023-09-08T01:01:29;4.53;;;2.70;;
21430;SDS011;10876;49.038;10.608;2023-09-08T01:03:58;5.50;;;3.53;;
21430;SDS011;10876;49.038;10.608;2023-09-08T01:06:26;5.38;;;3.13;;
21430;SDS011;10876;49.038;10.608;2023-09-08T01:08:54;4.38;;;3.13;;
21430;SDS011;10876;49.038;10.608;2023-09-08T01:11:23;6.85;;;2.97;;
21430;SDS011;10876;49.038;10.608;2023-09-08T01:13:51;5.13;;;2.88;;
21430;SDS011;10876;49.038;10.608;2023-09-08T01:16:20;5.60;;;3.22;;
21430;SDS011;10876;49.038;10.608;2023-09-08T01:18:48;5.63;;;3.10;;
21430;SDS011;10876;49.038;10.608;2023-09-08T01:24:14;7.95;;;4.10;;
21430;SDS011;10876;49.038;10.608;2023-09-08T01:26:47;9.10;;;4.32;;
21430;SDS011;10876;49.038;10.608;2023-09-08T01:29:15;6.22;;;3.38;;
21430;SDS011;10876;49.038;10.608;2023-09-08T01:31:42;5.00;;;3.28;;
21430;SDS011;10876;49.038;10.608;2023-09-08T01:34:16;6.68;;;3.75;;
21430;SDS011;10876;49.038;10.608;2023-09-08T01:36:43;7.00;;;3.38;;
21430;SDS011;10876;49.038;10.608;2023-09-08T01:39:16;7.53;;;3.45;;
21430;SDS011;10876;49.038;10.608;2023-09-08T01:41:50;5.10;;;2.65;;
21430;SDS011;10876;49.038;10.608;2023-09-08T01:44:18;4.50;;;2.60;;
21430;SDS011;10876;49.038;10.608;2023-09-08T01:46:48;4.13;;;2.72;;
21430;SDS011;10876;49.038;10.608;2023-09-08T01:49:18;4.03;;;2.90;;
21430;SDS011;10876;49.038;10.608;2023-09-08T01:51:47;5.65;;;3.30;;
21430;SDS011;10876;49.038;10.608;2023-09-08T01:54:14;4.20;;;2.63;;
21430;SDS011;10876;49.038;10.608;2023-09-08T01:56:41;7.10;;;3.28;;
21430;SDS011;10876;49.038;10.608;2023-09-08T01:59:12;5.35;;;3.05;;
21430;SDS011;10876;49.038;10.608;2023-09-08T02:01:40;5.60;;;2.85;;
21430;SDS011;10876;49.038;10.608;2023-09-08T02:04:18;7.15;;;3.38;;
21430;SDS011;10876;49.038;10.608;2023-09-08T02:06:49;5.95;;;2.70;;
21430;SDS011;10876;49.038;10.608;2023-09-08T02:09:19;6.40;;;2.80;;
21430;SDS011;10876;49.038;10.608;2023-09-08T02:11:50;6.13;;;3.40;;
21430;SDS011;10876;49.038;10.608;2023-09-08T02:14:22;6.38;;;2.95;;
21430;SDS011;10876;49.038;10.608;2023-09-08T02:16:54;5.47;;;2.78;;
21430;SDS011;10876;49.038;10.608;2023-09-08T02:19:25;6.32;;;3.53;;
21430;SDS011;10876;49.038;10.608;2023-09-08T02:21:55;4.57;;;2.85;;
21430;SDS011;10876;49.038;10.608;2023-09-08T02:24:37;3.97;;;2.88;;
21430;SDS011;10876;49.038;10.608;2023-09-08T02:27:04;7.35;;;3.20;;
21430;SDS011;10876;49.038;10.608;2023-09-08T02:29:32;4.15;;;2.67;;
21430;SDS011;10876;49.038;10.608;2023-09-08T02:32:00;6.20;;;2.63;;
21430;SDS011;10876;49.038;10.608;2023-09-08T02:34:33;4.88;;;2.67;;
21430;SDS011;10876;49.038;10.608;2023-09-08T02:37:05;7.03;;;3.50;;
21430;SDS011;10876;49.038;10.608;2023-09-08T02:39:33;4.35;;;2.72;;
21430;SDS011;10876;49.038;10.608;2023-09-08T02:42:04;4.88;;;2.55;;
21430;SDS011;10876;49.038;10.608;2023-09-08T02:44:35;5.45;;;2.85;;
21430;SDS011;10876;49.038;10.608;2023-09-08T02:47:06;5.82;;;2.80;;
21430;SDS011;10876;49.038;10.608;2023-09-08T02:49:53;6.07;;;2.78;;
21430;SDS011;10876;49.038;10.608;2023-09-08T02:52:22;4.20;;;2.28;;
21430;SDS011;10876;49.038;10.608;2023-09-08T02:54:51;5.65;;;3.08;;
21430;SDS011;10876;49.038;10.608;2023-09-08T02:57:19;7.00;;;2.83;;
21430;SDS011;10876;49.038;10.608;2023-09-08T02:59:50;5.82;;;3.13;;
21430;SDS011;10876;49.038;10.608;2023-09-08T03:02:18;5.20;;;2.70;;
21430;SDS011;10876;49.038;10.608;2023-09-08T03:04:50;7.05;;;3.47;;
21430;SDS011;10876;49.038;10.608;2023-09-08T03:07:17;6.65;;;3.28;;
21430;SDS011;10876;49.038;10.608;2023-09-08T03:09:59;7.40;;;3.92;;
21430;SDS011;10876;49.038;10.608;2023-09-08T03:12:32;7.00;;;3.65;;
21430;SDS011;10876;49.038;10.608;2023-09-08T03:17:48;7.57;;;3.35;;
21430;SDS011;10876;49.038;10.608;2023-09-08T03:20:16;7.50;;;3.40;;
21430;SDS011;10876;49.038;10.608;2023-09-08T03:22:46;7.47;;;3.50;;
21430;SDS011;10876;49.038;10.608;2023-09-08T03:25:14;6.43;;;3.33;;
21430;SDS011;10876;49.038;10.608;2023-09-08T03:27:43;8.55;;;3.15;;
21430;SDS011;10876;49.038;10.608;2023-09-08T03:30:11;6.85;;;3.35;;
21430;SDS011;10876;49.038;10.608;2023-09-08T03:32:51;5.57;;;3.40;;
21430;SDS011;10876;49.038;10.608;2023-09-08T03:35:18;4.63;;;2.97;;
21430;SDS011;10876;49.038;10.608;2023-09-08T03:37:46;7.35;;;3.83;;
21430;SDS011;10876;49.038;10.608;2023-09-08T03:40:14;7.57;;;3.80;;
21430;SDS011;10876;49.038;10.608;2023-09-08T03:45:47;8.52;;;3.53;;
21430;SDS011;10876;49.038;10.608;2023-09-08T03:48:19;8.23;;;4.22;;
21430;SDS011;10876;49.038;10.608;2023-09-08T03:50:50;7.82;;;3.85;;
21430;SDS011;10876;49.038;10.608;2023-09-08T03:53:17;7.13;;;3.08;;
21430;SDS011;10876;49.038;10.608;2023-09-08T03:55:44;7.45;;;3.38;;
21430;SDS011;10876;49.038;10.608;2023-09-08T03:58:13;4.70;;;3.20;;
21430;SDS011;10876;49.038;10.608;2023-09-08T04:00:42;7.10;;;2.97;;
21430;SDS011;10876;49.038;10.608;2023-09-08T04:03:13;9.77;;;3.63;;
21430;SDS011;10876;49.038;10.608;2023-09-08T04:06:02;8.07;;;3.60;;
21430;SDS011;10876;49.038;10.608;2023-09-08T04:08:31;5.43;;;2.97;;
21430;SDS011;10876;49.038;10.608;2023-09-08T04:10:58;5.70;;;3.17;;
21430;SDS011;10876;49.038;10.608;2023-09-08T04:13:26;5.07;;;2.83;;
21430;SDS011;10876;49.038;10.608;2023-09-08T04:15:54;4.10;;;2.58;;
21430;SDS011;10876;49.038;10.608;2023-09-08T04:18:21;4.93;;;3.13;;
21430;SDS011;10876;49.038;10.608;2023-09-08T04:20:48;4.43;;;2.55;;
21430;SDS011;10876;49.038;10.608;2023-09-08T04:23:21;3.92;;;2.60;;
21430;SDS011;10876;49.038;10.608;2023-09-08T04:25:48;7.50;;;2.92;;
21430;SDS011;10876;49.038;10.608;2023-09-08T04:28:16;4.40;;;2.78;;
21430;SDS011;10876;49.038;10.608;2023-09-08T04:30:51;5.40;;;2.35;;
21430;SDS011;10876;49.038;10.608;2023-09-08T04:33:18;4.10;;;2.42;;
21430;SDS011;10876;49.038;10.608;2023-09-08T04:35:46;5.25;;;2.72;;
21430;SDS011;10876;49.038;10.608;2023-09-08T04:38:34;4.18;;;2.72;;
21430;SDS011;10876;49.038;10.608;2023-09-08T04:41:04;6.60;;;2.78;;
21430;SDS011;10876;49.038;10.608;2023-09-08T04:43:31;5.40;;;2.80;;
21430;SDS011;10876;49.038;10.608;2023-09-08T04:48:57;5.70;;;3.20;;
21430;SDS011;10876;49.038;10.608;2023-09-08T04:51:33;4.75;;;2.70;;
21430;SDS011;10876;49.038;10.608;2023-09-08T04:54:04;4.60;;;2.88;;
21430;SDS011;10876;49.038;10.608;2023-09-08T04:56:33;5.32;;;3.13;;
21430;SDS011;10876;49.038;10.608;2023-09-08T04:59:04;6.47;;;3.03;;
21430;SDS011;10876;49.038;10.608;2023-09-08T05:01:34;4.88;;;3.00;;
21430;SDS011;10876;49.038;10.608;2023-09-08T05:04:04;4.55;;;2.63;;
21430;SDS011;10876;49.038;10.608;2023-09-08T05:06:30;2.72;;;1.88;;
21430;SDS011;10876;49.038;10.608;2023-09-08T05:09:00;4.80;;;2.35;;
21430;SDS011;10876;49.038;10.608;2023-09-08T05:11:42;2.75;;;1.98;;
21430;SDS011;10876;49.038;10.608;2023-09-08T05:14:09;5.95;;;2.67;;
21430;SDS011;10876;49.038;10.608;2023-09-08T05:16:38;3.10;;;2.05;;
21430;SDS011;10876;49.038;10.608;2023-09-08T05:19:12;4.93;;;2.70;;
21430;SDS011;10876;49.038;10.608;2023-09-08T05:21:42;5.72;;;2.38;;
21430;SDS011;10876;49.038;10.608;2023-09-08T05:24:11;4.95;;;2.80;;
21430;SDS011;10876;49.038;10.608;2023-09-08T05:26:41;4.80;;;2.80;;
21430;SDS011;10876;49.038;10.608;2023-09-08T05:29:23;5.55;;;2.60;;
21430;SDS011;10876;49.038;10.608;2023-09-08T05:32:11;5.68;;;2.80;;
21430;SDS011;10876;49.038;10.608;2023-09-08T05:34:38;4.80;;;3.15;;
21430;SDS011;10876;49.038;10.608;2023-09-08T05:37:07;12.77;;;3.13;;
21430;SDS011;10876;49.038;10.608;2023-09-08T05:39:35;5.60;;;2.70;;
21430;SDS011;10876;49.038;10.608;2023-09-08T05:42:07;5.57;;;3.28;;
21430;SDS011;10876;49.038;10.608;2023-09-08T05:44:34;4.40;;;2.70;;
21430;SDS011;10876;49.038;10.608;2023-09-08T05:47:04;5.28;;;3.28;;
21430;SDS011;10876;49.038;10.608;2023-09-08T05:49:31;7.68;;;3.88;;
21430;SDS011;10876;49.038;10.608;2023-09-08T05:52:00;6.78;;;3.80;;
21430;SDS011;10876;49.038;10.608;2023-09-08T05:54:28;9.25;;;3.53;;
21430;SDS011;10876;49.038;10.608;2023-09-08T05:56:59;5.82;;;3.38;;
21430;SDS011;10876;49.038;10.608;2023-09-08T05:59:31;4.45;;;3.17;;
21430;SDS011;10876;49.038;10.608;2023-09-08T06:02:02;7.07;;;4.45;;
21430;SDS011;10876;49.038;10.608;2023-09-08T06:04:28;6.45;;;3.28;;
21430;SDS011;10876;49.038;10.608;2023-09-08T06:07:01;6.60;;;3.63;;
21430;SDS011;10876;49.038;10.608;2023-09-08T06:09:34;6.13;;;3.22;;
21430;SDS011;10876;49.038;10.608;2023-09-08T06:12:02;8.95;;;3.88;;
21430;SDS011;10876;49.038;10.608;2023-09-08T06:17:21;6.15;;;3.80;;
21430;SDS011;10876;49.038;10.608;2023-09-08T06:19:48;6.88;;;3.65;;
21430;SDS011;10876;49.038;10.608;2023-09-08T06:22:19;4.30;;;3.17;;
21430;SDS011;10876;49.038;10.608;2023-09-08T06:24:51;5.80;;;3.28;;
21430;SDS011;10876;49.038;10.608;2023-09-08T06:27:18;6.10;;;3.95;;
21430;SDS011;10876;49.038;10.608;2023-09-08T06:29:46;6.38;;;3.78;;
21430;SDS011;10876;49.038;10.608;2023-09-08T06:32:13;5.65;;;3.42;;
21430;SDS011;10876;49.038;10.608;2023-09-08T06:34:49;5.75;;;3.67;;
21430;SDS011;10876;49.038;10.608;2023-09-08T06:37:16;5.25;;;3.42;;
21430;SDS011;10876;49.038;10.608;2023-09-08T06:39:48;5.07;;;3.47;;
21430;SDS011;10876;49.038;10.608;2023-09-08T06:42:17;8.80;;;4.10;;
21430;SDS011;10876;49.038;10.608;2023-09-08T06:44:47;6.20;;;3.08;;
21430;SDS011;10876;49.038;10.608;2023-09-08T06:47:14;5.03;;;3.22;;
21430;SDS011;10876;49.038;10.608;2023-09-08T06:49:43;5.10;;;3.35;;
21430;SDS011;10876;49.038;10.608;2023-09-08T07:09:07;6.15;;;3.13;;
21430;SDS011;10876;49.038;10.608;2023-09-08T07:11:33;6.05;;;2.95;;
21430;SDS011;10876;49.038;10.608;2023-09-08T07:14:00;5.78;;;3.47;;
21430;SDS011;10876;49.038;10.608;2023-09-08T07:16:26;6.13;;;3.92;;
21430;SDS011;10876;49.038;10.608;2023-09-08T07:18:52;5.10;;;2.90;;
21430;SDS011;10876;49.038;10.608;2023-09-08T07:21:19;6.00;;;3.00;;
21430;SDS011;10876;49.038;10.608;2023-09-08T07:23:45;5.30;;;3.08;;
21430;SDS011;10876;49.038;10.608;2023-09-08T07:26:13;4.03;;;2.47;;
21430;SDS011;10876;49.038;10.608;2023-09-08T07:28:40;2.40;;;2.00;;
21430;SDS011;10876;49.038;10.608;2023-09-08T07:31:06;2.70;;;2.10;;
21430;SDS011;10876;49.038;10.608;2023-09-08T07:33:34;6.55;;;2.60;;
21430;SDS011;10876;49.038;10.608;2023-09-08T07:36:03;4.22;;;2.72;;
21430;SDS011;10876;49.038;10.608;2023-09-08T07:38:30;3.28;;;2.55;;
21430;SDS011;10876;49.038;10.608;2023-09-08T07:40:56;3.50;;;2.50;;
21430;SDS011;10876;49.038;10.608;2023-09-08T07:43:26;9.10;;;2.70;;
21430;SDS011;10876;49.038;10.608;2023-09-08T07:45:52;4.15;;;2.53;;
21430;SDS011;10876;49.038;10.608;2023-09-08T07:48:19;6.18;;;2.90;;
21430;SDS011;10876;49.038;10.608;2023-09-08T07:50:45;4.70;;;2.58;;
21430;SDS011;10876;49.038;10.608;2023-09-08T07:53:12;12.45;;;3.25;;
21430;SDS011;10876;49.038;10.608;2023-09-08T07:55:38;9.32;;;2.97;;
21430;SDS011;10876;49.038;10.608;2023-09-08T07:58:05;4.15;;;2.63;;
21430;SDS011;10876;49.038;10.608;2023-09-08T08:00:33;5.55;;;2.90;;
21430;SDS011;10876;49.038;10.608;2023-09-08T08:02:59;5.10;;;2.90;;
21430;SDS011;10876;49.038;10.608;2023-09-08T08:05:26;3.88;;;2.63;;
21430;SDS011;10876;49.038;10.608;2023-09-08T08:07:52;4.63;;;2.40;;
21430;SDS011;10876;49.038;10.608;2023-09-08T08:10:19;4.55;;;2.70;;
21430;SDS011;10876;49.038;10.608;2023-09-08T08:12:45;5.80;;;2.83;;
21430;SDS011;10876;49.038;10.608;2023-09-08T08:15:12;4.25;;;2.78;;
21430;SDS011;10876;49.038;10.608;2023-09-08T08:17:40;5.03;;;3.05;;
21430;SDS011;10876;49.038;10.608;2023-09-08T08:20:06;4.47;;;2.85;;
21430;SDS011;10876;49.038;10.608;2023-09-08T08:25:46;5.05;;;2.67;;
21430;SDS011;10876;49.038;10.608;2023-09-08T08:28:12;5.40;;;2.70;;
21430;SDS011;10876;49.038;10.608;2023-09-08T08:30:39;5.90;;;2.92;;
21430;SDS011;10876;49.038;10.608;2023-09-08T08:33:07;5.82;;;3.03;;
21430;SDS011;10876;49.038;10.608;2023-09-08T08:35:33;4.43;;;2.60;;
21430;SDS011;10876;49.038;10.608;2023-09-08T08:38:00;3.50;;;2.55;;
21430;SDS011;10876;49.038;10.608;2023-09-08T08:40:26;6.57;;;2.90;;
21430;SDS011;10876;49.038;10.608;2023-09-08T08:42:54;4.78;;;2.83;;
21430;SDS011;10876;49.038;10.608;2023-09-08T08:45:21;5.47;;;3.00;;
21430;SDS011;10876;49.038;10.608;2023-09-08T08:47:48;4.38;;;2.83;;
21430;SDS011;10876;49.038;10.608;2023-09-08T08:50:17;4.50;;;2.63;;
21430;SDS011;10876;49.038;10.608;2023-09-08T08:52:43;4.18;;;2.92;;
21430;SDS011;10876;49.038;10.608;2023-09-08T08:55:10;4.60;;;2.63;;
21430;SDS011;10876;49.038;10.608;2023-09-08T08:57:36;5.50;;;2.75;;
21430;SDS011;10876;49.038;10.608;2023-09-08T09:00:04;7.68;;;2.97;;
21430;SDS011;10876;49.038;10.608;2023-09-08T09:02:33;6.18;;;2.80;;
21430;SDS011;10876;49.038;10.608;2023-09-08T09:05:00;4.43;;;2.85;;
21430;SDS011;10876;49.038;10.608;2023-09-08T09:07:28;3.40;;;2.33;;
21430;SDS011;10876;49.038;10.608;2023-09-08T09:09:55;4.60;;;3.03;;
21430;SDS011;10876;49.038;10.608;2023-09-08T09:12:21;4.78;;;3.17;;
21430;SDS011;10876;49.038;10.608;2023-09-08T09:14:48;4.88;;;3.13;;
21430;SDS011;10876;49.038;10.608;2023-09-08T09:17:14;4.20;;;2.90;;
21430;SDS011;10876;49.038;10.608;2023-09-08T09:19:41;4.25;;;2.85;;
21430;SDS011;10876;49.038;10.608;2023-09-08T09:22:07;6.82;;;2.80;;
21430;SDS011;10876;49.038;10.608;2023-09-08T09:24:36;6.32;;;2.42;;
21430;SDS011;10876;49.038;10.608;2023-09-08T09:27:06;4.90;;;2.63;;
21430;SDS011;10876;49.038;10.608;2023-09-08T09:29:32;5.18;;;3.05;;
21430;SDS011;10876;49.038;10.608;2023-09-08T09:32:02;3.75;;;2.63;;
21430;SDS011;10876;49.038;10.608;2023-09-08T09:34:29;7.10;;;2.97;;
21430;SDS011;10876;49.038;10.608;2023-09-08T09:36:56;4.80;;;2.95;;
21430;SDS011;10876;49.038;10.608;2023-09-08T09:39:24;5.47;;;2.88;;
21430;SDS011;10876;49.038;10.608;2023-09-08T09:41:54;4.65;;;2.53;;
21430;SDS011;10876;49.038;10.608;2023-09-08T09:44:22;4.93;;;2.63;;
21430;SDS011;10876;49.038;10.608;2023-09-08T09:46:51;6.35;;;2.60;;
21430;SDS011;10876;49.038;10.608;2023-09-08T09:49:18;5.80;;;2.50;;
21430;SDS011;10876;49.038;10.608;2023-09-08T09:51:45;6.07;;;2.92;;
21430;SDS011;10876;49.038;10.608;2023-09-08T09:54:12;4.28;;;2.40;;
21430;SDS011;10876;49.038;10.608;2023-09-08T09:56:39;3.47;;;2.42;;
21430;SDS011;10876;49.038;10.608;2023-09-08T09:59:08;4.72;;;3.05;;
21430;SDS011;10876;49.038;10.608;2023-09-08T10:01:36;4.57;;;2.60;;
21430;SDS011;10876;49.038;10.608;2023-09-08T10:04:03;11.73;;;2.90;;
21430;SDS011;10876;49.038;10.608;2023-09-08T10:06:31;4.88;;;2.90;;
21430;SDS011;10876;49.038;10.608;2023-09-08T10:08:58;4.68;;;2.63;;
21430;SDS011;10876;49.038;10.608;2023-09-08T10:11:38;3.95;;;2.47;;
21430;SDS011;10876;49.038;10.608;2023-09-08T10:14:09;4.97;;;2.53;;
21430;SDS011;10876;49.038;10.608;2023-09-08T10:16:38;2.83;;;2.28;;
21430;SDS011;10876;49.038;10.608;2023-09-08T10:19:07;5.57;;;3.05;;
21430;SDS011;10876;49.038;10.608;2023-09-08T10:21:33;4.07;;;2.45;;
21430;SDS011;10876;49.038;10.608;2023-09-08T10:24:03;3.50;;;2.25;;
21430;SDS011;10876;49.038;10.608;2023-09-08T10:26:33;3.25;;;2.50;;
21430;SDS011;10876;49.038;10.608;2023-09-08T10:29:00;4.20;;;2.58;;
21430;SDS011;10876;49.038;10.608;2023-09-08T10:31:29;4.47;;;2.65;;
21430;SDS011;10876;49.038;10.608;2023-09-08T10:33:56;4.70;;;2.70;;
21430;SDS011;10876;49.038;10.608;2023-09-08T10:36:23;3.05;;;2.05;;
21430;SDS011;10876;49.038;10.608;2023-09-08T10:38:50;3.90;;;2.80;;
21430;SDS011;10876;49.038;10.608;2023-09-08T10:41:26;3.35;;;2.50;;
21430;SDS011;10876;49.038;10.608;2023-09-08T10:43:56;8.90;;;4.72;;
21430;SDS011;10876;49.038;10.608;2023-09-08T10:46:23;5.57;;;3.25;;
21430;SDS011;10876;49.038;10.608;2023-09-08T10:48:51;3.63;;;2.65;;
21430;SDS011;10876;49.038;10.608;2023-09-08T10:51:22;6.35;;;3.08;;
21430;SDS011;10876;49.038;10.608;2023-09-08T10:53:50;3.65;;;2.60;;
21430;SDS011;10876;49.038;10.608;2023-09-08T10:56:17;4.55;;;2.80;;
21430;SDS011;10876;49.038;10.608;2023-09-08T10:58:48;4.60;;;2.90;;
21430;SDS011;10876;49.038;10.608;2023-09-08T11:01:16;5.00;;;3.05;;
21430;SDS011;10876;49.038;10.608;2023-09-08T11:03:43;4.47;;;2.70;;
21430;SDS011;10876;49.038;10.608;2023-09-08T11:06:15;4.82;;;2.40;;
21430;SDS011;10876;49.038;10.608;2023-09-08T11:08:42;3.30;;;2.65;;
21430;SDS011;10876;49.038;10.608;2023-09-08T11:11:10;4.45;;;2.78;;
21430;SDS011;10876;49.038;10.608;2023-09-08T11:13:36;3.55;;;2.25;;
21430;SDS011;10876;49.038;10.608;2023-09-08T11:16:04;4.40;;;2.55;;
21430;SDS011;10876;49.038;10.608;2023-09-08T11:18:31;4.45;;;2.65;;
21430;SDS011;10876;49.038;10.608;2023-09-08T11:20:59;4.30;;;2.28;;
21430;SDS011;10876;49.038;10.608;2023-09-08T11:23:27;3.72;;;2.70;;
21430;SDS011;10876;49.038;10.608;2023-09-08T11:25:54;3.92;;;2.45;;
21430;SDS011;10876;49.038;10.608;2023-09-08T11:28:21;3.25;;;2.40;;
21430;SDS011;10876;49.038;10.608;2023-09-08T11:30:48;4.93;;;2.38;;
21430;SDS011;10876;49.038;10.608;2023-09-08T11:33:15;3.70;;;2.30;;
21430;SDS011;10876;49.038;10.608;2023-09-08T11:35:42;5.70;;;2.10;;
21430;SDS011;10876;49.038;10.608;2023-09-08T11:38:09;4.00;;;2.63;;
21430;SDS011;10876;49.038;10.608;2023-09-08T11:40:37;2.95;;;2.25;;
21430;SDS011;10876;49.038;10.608;2023-09-08T11:43:04;3.90;;;2.53;;
21430;SDS011;10876;49.038;10.608;2023-09-08T11:45:33;9.45;;;2.70;;
21430;SDS011;10876;49.038;10.608;2023-09-08T11:48:01;3.25;;;2.20;;
21430;SDS011;10876;49.038;10.608;2023-09-08T11:50:27;4.53;;;3.08;;
21430;SDS011;10876;49.038;10.608;2023-09-08T11:52:54;3.15;;;2.33;;
21430;SDS011;10876;49.038;10.608;2023-09-08T11:55:21;3.58;;;2.40;;
21430;SDS011;10876;49.038;10.608;2023-09-08T11:57:51;5.85;;;2.47;;
21430;SDS011;10876;49.038;10.608;2023-09-08T12:00:21;4.28;;;2.65;;
21430;SDS011;10876;49.038;10.608;2023-09-08T12:02:48;6.00;;;2.78;;
21430;SDS011;10876;49.038;10.608;2023-09-08T12:05:20;2.95;;;2.15;;
21430;SDS011;10876;49.038;10.608;2023-09-08T12:07:47;3.65;;;2.53;;
21430;SDS011;10876;49.038;10.608;2023-09-08T12:10:14;5.95;;;2.40;;
21430;SDS011;10876;49.038;10.608;2023-09-08T12:12:41;3.83;;;2.40;;
21430;SDS011;10876;49.038;10.608;2023-09-08T12:15:09;3.40;;;2.13;;
21430;SDS011;10876;49.038;10.608;2023-09-08T12:17:46;3.92;;;2.30;;
21430;SDS011;10876;49.038;10.608;2023-09-08T12:20:13;4.35;;;2.42;;
21430;SDS011;10876;49.038;10.608;2023-09-08T12:22:46;3.85;;;2.47;;
21430;SDS011;10876;49.038;10.608;2023-09-08T12:25:16;3.33;;;2.38;;
21430;SDS011;10876;49.038;10.608;2023-09-08T12:27:45;3.70;;;2.40;;
21430;SDS011;10876;49.038;10.608;2023-09-08T12:30:17;12.65;;;2.85;;
21430;SDS011;10876;49.038;10.608;2023-09-08T12:32:45;4.53;;;2.50;;
21430;SDS011;10876;49.038;10.608;2023-09-08T12:35:12;3.38;;;2.72;;
21430;SDS011;10876;49.038;10.608;2023-09-08T12:37:39;3.40;;;2.38;;
21430;SDS011;10876;49.038;10.608;2023-09-08T12:40:06;3.42;;;2.35;;
21430;SDS011;10876;49.038;10.608;2023-09-08T12:42:32;3.70;;;2.63;;
21430;SDS011;10876;49.038;10.608;2023-09-08T12:44:59;4.57;;;2.17;;
21430;SDS011;10876;49.038;10.608;2023-09-08T12:47:27;3.38;;;2.50;;
21430;SDS011;10876;49.038;10.608;2023-09-08T12:49:54;3.00;;;2.28;;
21430;SDS011;10876;49.038;10.608;2023-09-08T12:52:20;3.30;;;2.30;;
21430;SDS011;10876;49.038;10.608;2023-09-08T12:54:47;3.03;;;2.33;;
21430;SDS011;10876;49.038;10.608;2023-09-08T12:57:13;3.22;;;2.30;;
21430;SDS011;10876;49.038;10.608;2023-09-08T12:59:40;4.30;;;2.28;;
21430;SDS011;10876;49.038;10.608;2023-09-08T13:02:06;4.57;;;2.47;;
21430;SDS011;10876;49.038;10.608;2023-09-08T13:04:34;4.53;;;2.17;;
21430;SDS011;10876;49.038;10.608;2023-09-08T13:07:01;4.32;;;2.63;;
21430;SDS011;10876;49.038;10.608;2023-09-08T13:09:27;4.78;;;1.90;;
21430;SDS011;10876;49.038;10.608;2023-09-08T13:11:53;4.22;;;2.53;;
21430;SDS011;10876;49.038;10.608;2023-09-08T13:14:20;6.20;;;2.33;;
21430;SDS011;10876;49.038;10.608;2023-09-08T13:16:46;4.15;;;2.28;;
21430;SDS011;10876;49.038;10.608;2023-09-08T13:19:13;4.13;;;2.17;;
21430;SDS011;10876;49.038;10.608;2023-09-08T13:21:40;7.18;;;2.53;;
21430;SDS011;10876;49.038;10.608;2023-09-08T13:24:07;3.03;;;2.20;;
21430;SDS011;10876;49.038;10.608;2023-09-08T13:26:34;4.18;;;2.20;;
21430;SDS011;10876;49.038;10.608;2023-09-08T13:29:00;4.95;;;2.60;;
21430;SDS011;10876;49.038;10.608;2023-09-08T13:31:26;3.45;;;2.25;;
21430;SDS011;10876;49.038;10.608;2023-09-08T13:33:53;3.97;;;2.65;;
21430;SDS011;10876;49.038;10.608;2023-09-08T13:36:19;3.47;;;2.40;;
21430;SDS011;10876;49.038;10.608;2023-09-08T13:38:47;3.55;;;2.17;;
21430;SDS011;10876;49.038;10.608;2023-09-08T13:41:14;3.10;;;2.45;;
21430;SDS011;10876;49.038;10.608;2023-09-08T13:43:40;2.80;;;2.20;;
21430;SDS011;10876;49.038;10.608;2023-09-08T13:46:07;3.10;;;2.13;;
21430;SDS011;10876;49.038;10.608;2023-09-08T13:48:34;3.53;;;2.28;;
21430;SDS011;10876;49.038;10.608;2023-09-08T13:51:01;4.05;;;2.28;;
21430;SDS011;10876;49.038;10.608;2023-09-08T13:53:27;3.35;;;2.35;;
21430;SDS011;10876;49.038;10.608;2023-09-08T13:55:55;2.53;;;2.00;;
21430;SDS011;10876;49.038;10.608;2023-09-08T13:58:22;2.50;;;2.05;;
21430;SDS011;10876;49.038;10.608;2023-09-08T14:00:48;5.68;;;2.42;;
21430;SDS011;10876;49.038;10.608;2023-09-08T14:03:16;3.25;;;2.20;;
21430;SDS011;10876;49.038;10.608;2023-09-08T14:05:43;3.28;;;2.08;;
21430;SDS011;10876;49.038;10.608;2023-09-08T14:08:09;4.50;;;2.40;;
21430;SDS011;10876;49.038;10.608;2023-09-08T14:10:36;3.50;;;2.42;;
21430;SDS011;10876;49.038;10.608;2023-09-08T14:13:04;4.18;;;2.55;;
21430;SDS011;10876;49.038;10.608;2023-09-08T14:15:30;2.90;;;2.10;;
21430;SDS011;10876;49.038;10.608;2023-09-08T14:17:57;3.25;;;2.40;;
21430;SDS011;10876;49.038;10.608;2023-09-08T14:20:23;3.10;;;2.08;;
21430;SDS011;10876;49.038;10.608;2023-09-08T14:22:51;2.63;;;2.00;;
21430;SDS011;10876;49.038;10.608;2023-09-08T14:25:17;3.78;;;2.47;;
21430;SDS011;10876;49.038;10.608;2023-09-08T14:27:44;2.72;;;2.15;;
21430;SDS011;10876;49.038;10.608;2023-09-08T14:30:12;3.40;;;2.03;;
21430;SDS011;10876;49.038;10.608;2023-09-08T14:32:38;5.18;;;2.10;;
21430;SDS011;10876;49.038;10.608;2023-09-08T14:35:05;3.28;;;2.33;;
21430;SDS011;10876;49.038;10.608;2023-09-08T14:37:32;3.45;;;2.00;;
21430;SDS011;10876;49.038;10.608;2023-09-08T14:39:59;13.40;;;2.80;;
21430;SDS011;10876;49.038;10.608;2023-09-08T14:42:25;4.65;;;2.75;;
21430;SDS011;10876;49.038;10.608;2023-09-08T14:44:52;26.48;;;4.20;;
21430;SDS011;10876;49.038;10.608;2023-09-08T14:47:20;3.47;;;2.33;;
21430;SDS011;10876;49.038;10.608;2023-09-08T14:49:48;5.25;;;2.03;;
21430;SDS011;10876;49.038;10.608;2023-09-08T14:52:15;4.18;;;2.13;;
21430;SDS011;10876;49.038;10.608;2023-09-08T14:54:45;4.30;;;2.05;;
21430;SDS011;10876;49.038;10.608;2023-09-08T14:57:12;4.63;;;2.60;;
21430;SDS011;10876;49.038;10.608;2023-09-08T14:59:38;4.18;;;2.30;;
21430;SDS011;10876;49.038;10.608;2023-09-08T15:02:04;4.00;;;2.40;;
21430;SDS011;10876;49.038;10.608;2023-09-08T15:04:33;5.88;;;2.15;;
21430;SDS011;10876;49.038;10.608;2023-09-08T15:06:59;6.13;;;2.40;;
21430;SDS011;10876;49.038;10.608;2023-09-08T15:09:26;2.95;;;2.00;;
21430;SDS011;10876;49.038;10.608;2023-09-08T15:11:52;3.97;;;2.00;;
21430;SDS011;10876;49.038;10.608;2023-09-08T15:14:19;2.60;;;1.95;;
21430;SDS011;10876;49.038;10.608;2023-09-08T15:16:45;3.92;;;2.00;;
21430;SDS011;10876;49.038;10.608;2023-09-08T15:19:11;4.05;;;2.40;;
21430;SDS011;10876;49.038;10.608;2023-09-08T15:21:40;2.75;;;1.95;;